Time;durP1;ratioP1;P1;durP2;ratioP2;P2;SDS_P1;SDS_P2;PMS_P1;PMS_P2;Temp;Humidity;BMP_temperature;BMP_pressure;BME280_temperature;BME280_humidity;BME280_pressure;Samples;Min_cycle;Max_cycle;Signal;HPM_P1;HPM_P2
2023/01/10 00:01:51;;;;;;;19.63;7.68;;;6.10;97.90;;;;;;5033474;28;20033;-68
2023/01/10 00:04:17;;;;;;;19.15;6.82;;;6.10;98.00;;;;;;5029075;28;20018;-68
2023/01/10 00:06:42;;;;;;;21.17;7.65;;;6.00;98.00;;;;;;5033528;28;20393;-68
2023/01/10 00:09:09;;;;;;;26.65;7.75;;;5.90;98.10;;;;;;5029348;28;20112;-68
2023/01/10 00:14:19;;;;;;;19.58;7.95;;;5.80;98.10;;;;;;5031834;28;20039;-68
2023/01/10 00:16:45;;;;;;;23.92;8.90;;;5.80;98.20;;;;;;5028790;28;20041;-69
2023/01/10 00:19:10;;;;;;;22.10;7.97;;;5.80;98.30;;;;;;5031506;28;20025;-69
2023/01/10 00:21:36;;;;;;;22.90;9.65;;;5.80;98.40;;;;;;5027629;28;20073;-70
2023/01/10 00:24:21;;;;;;;24.45;10.20;;;5.70;98.40;;;;;;5025562;28;20032;-68
2023/01/10 00:26:51;;;;;;;24.92;10.30;;;5.70;98.50;;;;;;5024123;28;20029;-69
2023/01/10 00:29:18;;;;;;;28.00;10.60;;;5.70;98.40;;;;;;5027277;28;20091;-68
2023/01/10 00:31:43;;;;;;;22.88;10.65;;;5.80;98.40;;;;;;5028594;28;20291;-68
2023/01/10 00:34:09;;;;;;;27.33;11.93;;;5.80;98.50;;;;;;5025311;28;20395;-69
2023/01/10 00:36:34;;;;;;;28.65;12.18;;;5.80;98.50;;;;;;5028209;28;20108;-70
2023/01/10 00:39:00;;;;;;;24.88;12.18;;;5.80;98.40;;;;;;5025882;28;20366;-69
2023/01/10 00:44:09;;;;;;;30.13;13.07;;;5.80;98.30;;;;;;5032033;28;20080;-68
2023/01/10 00:46:35;;;;;;;31.23;13.48;;;5.80;98.20;;;;;;5029860;28;20037;-69
2023/01/10 00:49:02;;;;;;;31.25;13.20;;;5.70;98.20;;;;;;5027124;28;20033;-69
2023/01/10 00:51:27;;;;;;;28.95;12.90;;;5.70;98.30;;;;;;5027793;28;20514;-69
2023/01/10 00:53:53;;;;;;;35.22;12.93;;;5.70;98.30;;;;;;5027301;28;20029;-68
2023/01/10 00:56:18;;;;;;;28.13;13.15;;;5.70;98.40;;;;;;5029787;28;20460;-69
2023/01/10 00:58:44;;;;;;;25.05;13.10;;;5.80;98.40;;;;;;5030740;28;20032;-69
2023/01/10 01:01:09;;;;;;;27.13;12.95;;;5.80;98.30;;;;;;5029357;28;20037;-69
2023/01/10 01:03:35;;;;;;;25.98;13.15;;;5.70;98.30;;;;;;5029271;28;20120;-69
2023/01/10 01:06:05;;;;;;;25.38;12.88;;;5.80;98.30;;;;;;5025609;28;20037;-69
2023/01/10 01:08:31;;;;;;;27.67;12.88;;;5.80;98.30;;;;;;5029167;28;20037;-68
2023/01/10 01:10:56;;;;;;;24.58;13.40;;;5.80;98.20;;;;;;5034823;28;20358;-69
2023/01/10 01:13:22;;;;;;;28.88;12.57;;;5.80;98.20;;;;;;5035378;28;20041;-69
2023/01/10 01:15:48;;;;;;;23.00;12.77;;;5.80;98.20;;;;;;5036559;28;20420;-68
2023/01/10 01:18:17;;;;;;;23.67;12.93;;;5.80;98.00;;;;;;5031175;28;20106;-69
2023/01/10 01:20:44;;;;;;;28.33;12.88;;;5.70;97.90;;;;;;5027847;28;20034;-68
2023/01/10 01:23:10;;;;;;;28.83;12.70;;;5.70;97.70;;;;;;5028698;28;20059;-68
2023/01/10 01:25:36;;;;;;;31.67;13.18;;;5.70;97.70;;;;;;5031040;28;20414;-69
2023/01/10 01:28:01;;;;;;;21.88;11.98;;;5.70;97.60;;;;;;5027053;28;20117;-69
2023/01/10 01:30:27;;;;;;;24.95;12.48;;;5.60;97.70;;;;;;5029019;28;20037;-69
2023/01/10 01:32:52;;;;;;;24.65;11.48;;;5.60;97.80;;;;;;5031662;28;20041;-68
2023/01/10 01:35:18;;;;;;;26.92;13.15;;;5.60;97.90;;;;;;5025605;28;20168;-69
2023/01/10 01:37:44;;;;;;;22.02;12.27;;;5.50;98.00;;;;;;5029198;28;20025;-68
2023/01/10 01:40:20;;;;;;;23.73;12.18;;;5.50;97.90;;;;;;5027163;28;20037;-69
2023/01/10 01:42:47;;;;;;;26.63;13.00;;;5.40;98.10;;;;;;5021990;28;20436;-69
2023/01/10 01:45:13;;;;;;;26.13;13.07;;;5.40;98.20;;;;;;5028804;28;20556;-69
2023/01/10 01:47:57;;;;;;;26.83;12.45;;;5.40;98.20;;;;;;5025601;28;20105;-68
2023/01/10 01:50:33;;;;;;;24.17;12.25;;;5.40;98.20;;;;;;5025412;28;20037;-68
2023/01/10 01:53:02;;;;;;;25.63;11.65;;;5.40;98.20;;;;;;5023220;28;20037;-69
2023/01/10 01:55:32;;;;;;;29.80;12.85;;;5.40;98.20;;;;;;5029968;28;20029;-69
2023/01/10 01:58:00;;;;;;;23.65;11.65;;;5.40;98.30;;;;;;5031062;28;20091;-68
2023/01/10 02:00:26;;;;;;;23.67;12.38;;;5.40;98.20;;;;;;5026080;28;20389;-69
2023/01/10 02:02:58;;;;;;;23.85;11.98;;;5.40;98.20;;;;;;5028963;28;20045;-68
2023/01/10 02:05:24;;;;;;;26.02;11.43;;;5.40;98.30;;;;;;5028509;28;20499;-68
2023/01/10 02:07:53;;;;;;;26.10;11.65;;;5.40;98.30;;;;;;5028648;28;20092;-69
2023/01/10 02:11:08;;;;;;;23.20;10.63;;;5.40;98.40;;;;;;5025696;28;20034;-69
2023/01/10 02:13:37;;;;;;;18.63;10.32;;;5.30;98.60;;;;;;5029253;28;20100;-69
2023/01/10 02:16:03;;;;;;;25.75;10.48;;;5.30;98.80;;;;;;5032447;28;20113;-70
2023/01/10 02:18:28;;;;;;;23.38;10.93;;;5.30;98.80;;;;;;5026302;28;20545;-68
2023/01/10 02:21:12;;;;;;;24.17;10.63;;;5.30;99.00;;;;;;5022254;28;20029;-69
2023/01/10 02:23:59;;;;;;;21.60;10.18;;;5.20;99.00;;;;;;5026797;28;20033;-69
2023/01/10 02:26:59;;;;;;;19.40;9.48;;;5.30;99.10;;;;;;5030034;28;20061;-69
2023/01/10 02:29:55;;;;;;;19.42;10.15;;;5.30;99.10;;;;;;5025114;28;20371;-70
2023/01/10 02:32:33;;;;;;;22.77;9.65;;;5.30;99.10;;;;;;5025020;28;20120;-69
2023/01/10 02:35:26;;;;;;;24.52;9.25;;;5.30;99.10;;;;;;5019789;28;20034;-70
2023/01/10 02:38:07;;;;;;;16.42;8.35;;;5.20;99.10;;;;;;5016715;28;20042;-69
2023/01/10 02:40:46;;;;;;;22.67;9.55;;;5.30;99.10;;;;;;5025030;28;20052;-68
2023/01/10 02:43:17;;;;;;;17.15;8.52;;;5.30;99.10;;;;;;5028654;28;20037;-69
2023/01/10 02:46:13;;;;;;;21.13;8.77;;;5.20;99.20;;;;;;5025051;28;20036;-69
2023/01/10 02:48:39;;;;;;;22.08;8.70;;;5.20;99.20;;;;;;5020677;28;21287;-69
2023/01/10 02:51:17;;;;;;;19.73;8.45;;;5.10;99.30;;;;;;5027191;28;20041;-69
2023/01/10 02:53:51;;;;;;;22.00;8.18;;;5.10;99.20;;;;;;5022169;28;20045;-69
2023/01/10 02:56:55;;;;;;;19.60;8.05;;;5.10;99.30;;;;;;5023691;28;20463;-70
2023/01/10 02:59:57;;;;;;;18.40;7.97;;;5.10;99.30;;;;;;5019214;28;20375;-69
2023/01/10 03:03:00;;;;;;;16.42;6.45;;;5.00;99.30;;;;;;5026317;28;20033;-69
2023/01/10 03:05:46;;;;;;;22.10;7.55;;;5.00;99.40;;;;;;5026092;28;20528;-69
2023/01/10 03:08:36;;;;;;;21.83;7.00;;;5.00;99.40;;;;;;5027708;28;20389;-69
2023/01/10 03:11:09;;;;;;;18.60;7.07;;;4.90;99.40;;;;;;5022376;28;20059;-68
2023/01/10 03:13:54;;;;;;;21.80;7.45;;;5.00;99.50;;;;;;5021276;28;20104;-69
2023/01/10 03:16:26;;;;;;;20.00;7.35;;;5.00;99.50;;;;;;5021857;28;20434;-69
2023/01/10 03:19:06;;;;;;;19.88;6.80;;;5.00;99.50;;;;;;5029065;28;20381;-69
2023/01/10 03:21:33;;;;;;;16.87;7.13;;;4.90;99.40;;;;;;5020571;28;20053;-68
2023/01/10 03:24:08;;;;;;;21.33;7.20;;;4.80;99.40;;;;;;5024189;28;20304;-68
2023/01/10 03:26:47;;;;;;;23.88;7.45;;;4.80;99.40;;;;;;5031090;28;20096;-69
2023/01/10 03:29:20;;;;;;;16.38;6.25;;;4.80;99.60;;;;;;5026167;28;20025;-69
2023/01/10 03:31:54;;;;;;;18.73;7.03;;;4.80;99.50;;;;;;5026393;28;20120;-69
2023/01/10 03:34:21;;;;;;;17.55;7.22;;;4.80;99.50;;;;;;5025105;28;20033;-69
2023/01/10 03:36:58;;;;;;;18.40;6.50;;;4.70;99.60;;;;;;5023937;28;20036;-68
2023/01/10 03:39:40;;;;;;;21.30;6.43;;;4.70;99.60;;;;;;5026543;28;20040;-69
2023/01/10 03:42:21;;;;;;;19.50;5.78;;;4.70;99.70;;;;;;5029775;28;20071;-69
2023/01/10 03:45:05;;;;;;;20.90;6.28;;;4.70;99.70;;;;;;5027595;28;20216;-68
2023/01/10 03:47:40;;;;;;;16.33;6.07;;;4.70;99.70;;;;;;5026073;28;20096;-69
2023/01/10 03:50:13;;;;;;;19.60;5.63;;;4.60;99.60;;;;;;5022114;28;20029;-69
2023/01/10 03:52:41;;;;;;;15.82;5.50;;;4.60;99.70;;;;;;5022932;28;20029;-69
2023/01/10 03:55:09;;;;;;;17.38;5.85;;;4.70;99.80;;;;;;5026223;28;20025;-69
2023/01/10 03:57:35;;;;;;;20.98;5.78;;;4.80;99.70;;;;;;5021688;28;20037;-68
2023/01/10 04:00:00;;;;;;;16.52;5.88;;;4.80;99.60;;;;;;5026845;28;20037;-68
2023/01/10 04:02:28;;;;;;;16.33;5.63;;;4.90;99.60;;;;;;5023928;28;20050;-69
2023/01/10 04:04:53;;;;;;;27.77;5.88;;;4.90;99.50;;;;;;5025398;28;20125;-69
2023/01/10 04:07:19;;;;;;;25.13;5.80;;;5.00;99.40;;;;;;5027945;28;20188;-69
2023/01/10 04:09:44;;;;;;;16.83;5.18;;;5.00;99.30;;;;;;5032612;28;20052;-69
2023/01/10 04:12:10;;;;;;;17.20;5.63;;;5.00;99.30;;;;;;5033311;28;20049;-69
2023/01/10 04:14:35;;;;;;;25.58;5.95;;;5.00;99.30;;;;;;5032938;28;20117;-69
2023/01/10 04:17:01;;;;;;;23.52;5.85;;;5.00;99.20;;;;;;5029686;28;20080;-69
2023/01/10 04:19:26;;;;;;;17.00;5.32;;;5.00;99.30;;;;;;5029299;28;20083;-69
2023/01/10 04:21:52;;;;;;;17.90;6.13;;;5.00;99.20;;;;;;5027695;28;20045;-69
2023/01/10 04:24:17;;;;;;;19.30;5.47;;;5.00;99.20;;;;;;5025080;28;20466;-69
2023/01/10 04:26:43;;;;;;;19.73;5.57;;;5.00;99.10;;;;;;5028525;28;20058;-70
2023/01/10 04:29:09;;;;;;;22.92;6.05;;;5.00;99.10;;;;;;5030584;28;20029;-69
2023/01/10 04:31:35;;;;;;;19.45;6.00;;;5.00;99.10;;;;;;5028660;28;20033;-68
2023/01/10 04:34:00;;;;;;;16.75;5.60;;;5.00;99.10;;;;;;5023221;28;20209;-68
2023/01/10 04:36:26;;;;;;;15.98;5.07;;;5.00;99.10;;;;;;5020036;28;20030;-68
2023/01/10 04:38:52;;;;;;;17.73;6.18;;;5.10;99.00;;;;;;5031856;28;20470;-69
2023/01/10 04:41:17;;;;;;;17.75;5.38;;;5.00;99.00;;;;;;5029579;28;20043;-69
2023/01/10 04:43:43;;;;;;;12.35;5.00;;;5.00;99.10;;;;;;5029686;28;20420;-69
2023/01/10 04:46:08;;;;;;;18.42;5.22;;;5.00;99.00;;;;;;5025204;28;20474;-69
2023/01/10 04:48:36;;;;;;;19.85;5.47;;;5.10;99.00;;;;;;5030876;28;20048;-71
2023/01/10 04:51:02;;;;;;;17.40;5.22;;;5.00;99.00;;;;;;5027032;28;20113;-71
2023/01/10 04:53:27;;;;;;;15.40;5.50;;;5.10;99.00;;;;;;5023607;28;20034;-69
2023/01/10 04:55:53;;;;;;;15.73;5.15;;;5.10;99.00;;;;;;5030878;28;20456;-69
2023/01/10 04:58:18;;;;;;;15.68;5.70;;;5.10;99.00;;;;;;5025874;28;20030;-68
2023/01/10 05:00:44;;;;;;;12.48;4.15;;;5.10;99.00;;;;;;5029082;28;20421;-69
2023/01/10 05:03:09;;;;;;;17.42;5.20;;;5.10;99.00;;;;;;5030090;28;20040;-69
2023/01/10 05:05:35;;;;;;;18.98;5.28;;;5.10;99.00;;;;;;5027253;28;20910;-69
2023/01/10 05:08:01;;;;;;;22.85;5.10;;;5.10;98.90;;;;;;5027679;28;20041;-69
2023/01/10 05:10:26;;;;;;;13.30;4.63;;;5.10;98.90;;;;;;5020827;28;20048;-69
2023/01/10 05:12:52;;;;;;;17.65;5.57;;;5.00;98.90;;;;;;5030739;28;20037;-69
2023/01/10 05:15:19;;;;;;;17.58;4.47;;;5.00;98.80;;;;;;5016330;28;20125;-69
2023/01/10 05:17:45;;;;;;;16.85;5.07;;;4.80;98.90;;;;;;5022634;28;20035;-69
2023/01/10 05:20:12;;;;;;;16.58;4.70;;;4.70;99.00;;;;;;5020789;28;20042;-68
2023/01/10 05:22:37;;;;;;;14.00;4.57;;;4.60;99.00;;;;;;5022790;28;20099;-69
2023/01/10 05:25:04;;;;;;;12.10;5.32;;;4.60;99.10;;;;;;5027347;28;20033;-69
2023/01/10 05:27:29;;;;;;;18.73;5.45;;;4.50;99.30;;;;;;5022451;28;20069;-69
2023/01/10 05:29:54;;;;;;;15.35;5.13;;;4.40;99.30;;;;;;5028068;28;20359;-69
2023/01/10 05:32:20;;;;;;;18.33;5.45;;;4.40;99.50;;;;;;5027252;28;20076;-70
2023/01/10 05:34:45;;;;;;;19.70;5.15;;;4.40;99.50;;;;;;5029256;28;20228;-69
2023/01/10 05:37:11;;;;;;;15.23;5.20;;;4.30;99.50;;;;;;5026505;28;20469;-71
2023/01/10 05:39:38;;;;;;;26.95;5.28;;;4.30;99.50;;;;;;5026635;28;20033;-69
2023/01/10 05:42:04;;;;;;;22.35;4.82;;;4.20;99.50;;;;;;5027203;28;20430;-71
2023/01/10 05:44:30;;;;;;;19.88;5.25;;;4.10;99.50;;;;;;5030918;28;20091;-71
2023/01/10 05:46:55;;;;;;;16.05;4.68;;;4.10;99.70;;;;;;5027647;28;20029;-71
2023/01/10 05:49:21;;;;;;;19.80;4.78;;;4.00;99.70;;;;;;5023743;28;20029;-71
2023/01/10 05:51:46;;;;;;;14.95;4.72;;;4.00;99.70;;;;;;5022494;28;20161;-71
2023/01/10 05:54:11;;;;;;;17.85;4.60;;;4.00;99.80;;;;;;5030526;28;20037;-71
2023/01/10 05:56:37;;;;;;;16.08;4.30;;;4.00;99.80;;;;;;5026048;28;20440;-71
2023/01/10 05:59:03;;;;;;;24.88;4.45;;;4.00;99.90;;;;;;5025234;28;20030;-70
2023/01/10 06:01:28;;;;;;;22.35;4.82;;;3.90;99.90;;;;;;5027301;28;20124;-70
2023/01/10 06:03:54;;;;;;;19.70;5.63;;;4.00;99.90;;;;;;5026955;28;20104;-70
2023/01/10 06:06:19;;;;;;;18.02;4.50;;;3.80;99.90;;;;;;5030689;28;20470;-70
2023/01/10 06:08:44;;;;;;;19.75;4.95;;;3.90;99.90;;;;;;5028328;28;20034;-70
2023/01/10 06:11:10;;;;;;;21.90;5.10;;;3.90;99.90;;;;;;5027661;28;20071;-70
2023/01/10 06:13:35;;;;;;;24.65;5.78;;;3.90;99.90;;;;;;5021709;28;20200;-71
2023/01/10 06:16:01;;;;;;;26.98;5.55;;;4.00;99.90;;;;;;5022787;28;20080;-71
2023/01/10 06:18:27;;;;;;;21.20;5.28;;;4.00;99.90;;;;;;5028430;28;20033;-70
2023/01/10 06:20:52;;;;;;;23.05;5.35;;;4.10;99.90;;;;;;5029716;28;20116;-71
2023/01/10 06:23:18;;;;;;;23.08;5.25;;;4.10;99.90;;;;;;5026940;28;20036;-70
2023/01/10 06:25:43;;;;;;;21.40;5.93;;;4.10;99.90;;;;;;5028132;28;20029;-70
2023/01/10 06:28:11;;;;;;;15.93;5.30;;;4.20;99.90;;;;;;5029992;28;20181;-70
2023/01/10 06:30:37;;;;;;;16.75;5.88;;;4.10;99.90;;;;;;5025321;28;20112;-70
2023/01/10 06:33:06;;;;;;;23.17;6.20;;;4.20;99.90;;;;;;5027530;28;20034;-70
2023/01/10 06:35:32;;;;;;;25.95;6.65;;;4.30;99.90;;;;;;5024477;28;20041;-70
2023/01/10 06:37:58;;;;;;;20.42;5.13;;;4.30;99.90;;;;;;5027964;28;20165;-70
2023/01/10 06:40:23;;;;;;;24.08;6.00;;;4.40;99.90;;;;;;5028547;28;20091;-70
2023/01/10 06:42:49;;;;;;;25.63;5.65;;;4.50;99.90;;;;;;5027699;28;20025;-70
2023/01/10 06:45:15;;;;;;;21.13;5.82;;;4.50;99.90;;;;;;5022869;28;20049;-70
2023/01/10 06:47:40;;;;;;;20.48;5.70;;;4.60;99.90;;;;;;5021873;28;20121;-70
2023/01/10 06:50:06;;;;;;;38.03;6.25;;;4.60;99.80;;;;;;5023036;28;20029;-70
2023/01/10 06:52:32;;;;;;;22.20;6.05;;;4.60;99.70;;;;;;5024890;28;20041;-70
2023/01/10 06:54:58;;;;;;;28.92;6.38;;;4.60;99.60;;;;;;5024808;28;20293;-70
2023/01/10 06:57:23;;;;;;;19.92;4.88;;;4.70;99.60;;;;;;5024833;28;20030;-70
2023/01/10 06:59:49;;;;;;;22.52;6.25;;;4.70;99.50;;;;;;5026335;28;20041;-70
2023/01/10 07:02:14;;;;;;;23.50;6.40;;;4.70;99.50;;;;;;5027045;28;20412;-70
2023/01/10 07:04:40;;;;;;;24.65;5.60;;;4.70;99.40;;;;;;5028458;28;20057;-70
2023/01/10 07:07:05;;;;;;;22.38;5.80;;;4.70;99.30;;;;;;5024631;28;20033;-71
2023/01/10 07:09:31;;;;;;;26.30;6.68;;;4.80;99.20;;;;;;5016673;28;20040;-70
2023/01/10 07:11:56;;;;;;;26.45;6.15;;;4.70;99.20;;;;;;5014304;28;20105;-71
2023/01/10 07:14:22;;;;;;;19.00;5.70;;;4.70;99.10;;;;;;5021736;28;20029;-71
2023/01/10 07:16:48;;;;;;;23.52;5.53;;;4.70;99.10;;;;;;5027024;28;20118;-70
2023/01/10 07:19:14;;;;;;;26.25;5.88;;;4.70;99.10;;;;;;5019796;28;20060;-71
2023/01/10 07:21:40;;;;;;;27.85;6.30;;;4.70;99.10;;;;;;5024477;28;20060;-70
2023/01/10 07:24:06;;;;;;;19.38;5.25;;;4.70;99.00;;;;;;5025430;28;20030;-70
2023/01/10 07:26:32;;;;;;;20.98;6.00;;;4.70;99.00;;;;;;5022932;28;20085;-70
2023/01/10 07:28:57;;;;;;;21.58;5.03;;;4.60;99.00;;;;;;5028216;28;20523;-71
2023/01/10 07:31:23;;;;;;;26.73;5.80;;;4.60;99.00;;;;;;5030149;28;20060;-71
2023/01/10 07:33:50;;;;;;;26.52;5.28;;;4.60;99.00;;;;;;5028961;28;20030;-70
2023/01/10 07:36:16;;;;;;;21.27;5.43;;;4.60;99.10;;;;;;5026608;28;20038;-70
2023/01/10 07:38:41;;;;;;;23.50;5.85;;;4.60;99.10;;;;;;5028691;28;20030;-70
2023/01/10 07:41:07;;;;;;;21.40;5.05;;;4.60;99.10;;;;;;5029169;28;20046;-70
2023/01/10 07:43:33;;;;;;;20.23;6.25;;;4.60;99.10;;;;;;5030647;28;20045;-70
2023/01/10 07:46:04;;;;;;;24.83;5.65;;;4.60;99.10;;;;;;5029784;28;20030;-70
2023/01/10 07:48:29;;;;;;;;;;;4.60;99.00;;;;;;5027608;28;20029;-70
2023/01/10 07:50:59;;;;;;;25.20;4.80;;;4.70;99.00;;;;;;5031533;28;19916;-70
2023/01/10 07:53:26;;;;;;;20.15;5.03;;;4.70;99.00;;;;;;5029394;28;20037;-70
2023/01/10 07:55:52;;;;;;;20.52;5.35;;;4.70;98.90;;;;;;5029069;28;20030;-70
2023/01/10 07:58:18;;;;;;;20.27;4.82;;;4.70;98.90;;;;;;5031763;28;20047;-70
2023/01/10 08:00:44;;;;;;;15.65;5.07;;;4.80;98.90;;;;;;5033211;28;20037;-70
2023/01/10 08:03:11;;;;;;;21.35;5.82;;;4.80;98.80;;;;;;5030924;28;20043;-70
2023/01/10 08:05:36;;;;;;;14.00;4.63;;;4.80;98.80;;;;;;5026448;28;20057;-70
2023/01/10 08:08:06;;;;;;;20.42;5.15;;;4.80;98.70;;;;;;5027041;28;20735;-70
2023/01/10 08:10:33;;;;;;;16.38;4.63;;;4.90;98.70;;;;;;5033738;28;20099;-70
2023/01/10 08:12:58;;;;;;;16.13;5.70;;;4.90;98.70;;;;;;5032721;28;20432;-70
2023/01/10 08:15:24;;;;;;;17.42;4.75;;;4.90;98.50;;;;;;5023026;28;20030;-70
2023/01/10 08:17:49;;;;;;;17.45;5.60;;;4.90;98.50;;;;;;5030959;28;20124;-70
2023/01/10 08:20:15;;;;;;;15.15;4.60;;;4.90;98.50;;;;;;5030277;28;20033;-70
2023/01/10 08:22:40;;;;;;;21.63;4.85;;;4.90;98.50;;;;;;5024775;28;20096;-70
2023/01/10 08:25:06;;;;;;;17.65;5.50;;;4.90;98.40;;;;;;5030071;28;20034;-70
2023/01/10 08:27:32;;;;;;;16.80;5.03;;;4.90;98.50;;;;;;5031823;28;20048;-70
2023/01/10 08:29:57;;;;;;;22.80;6.13;;;4.90;98.50;;;;;;5029595;28;20389;-70
2023/01/10 08:32:22;;;;;;;16.73;5.13;;;4.90;98.50;;;;;;5028961;28;20596;-70
2023/01/10 08:34:48;;;;;;;21.95;5.07;;;4.90;98.60;;;;;;5027546;28;20033;-70
2023/01/10 08:37:13;;;;;;;17.63;5.70;;;4.90;98.50;;;;;;5027969;28;20042;-70
2023/01/10 08:39:39;;;;;;;21.48;4.95;;;4.90;98.40;;;;;;5031195;28;20043;-70
2023/01/10 08:42:04;;;;;;;15.18;4.78;;;5.00;98.40;;;;;;5032262;28;20432;-70
2023/01/10 08:44:30;;;;;;;20.60;6.35;;;4.90;98.30;;;;;;5030774;28;20033;-70
2023/01/10 08:46:56;;;;;;;21.77;5.57;;;5.00;98.30;;;;;;5026936;28;20041;-70
2023/01/10 08:49:22;;;;;;;18.65;5.72;;;5.00;98.30;;;;;;5030389;28;20041;-70
2023/01/10 08:51:48;;;;;;;19.17;6.10;;;5.00;98.40;;;;;;5024059;28;20102;-70
2023/01/10 08:54:14;;;;;;;19.42;6.03;;;5.00;98.20;;;;;;5034661;28;20033;-70
2023/01/10 08:56:40;;;;;;;22.20;5.70;;;5.00;98.10;;;;;;5036311;28;20026;-70
2023/01/10 08:59:06;;;;;;;17.63;6.68;;;5.00;98.00;;;;;;5030802;28;20037;-70
2023/01/10 09:01:32;;;;;;;19.10;6.10;;;5.00;97.80;;;;;;5025765;28;20041;-70
2023/01/10 09:03:57;;;;;;;20.10;5.72;;;5.00;97.90;;;;;;5031522;28;20504;-70
2023/01/10 09:06:23;;;;;;;20.20;5.90;;;5.00;97.90;;;;;;5024570;28;20109;-70
2023/01/10 09:08:49;;;;;;;19.25;7.05;;;5.00;97.90;;;;;;5026539;28;20568;-70
2023/01/10 09:11:14;;;;;;;22.08;6.07;;;5.00;97.90;;;;;;5029425;28;20048;-70
2023/01/10 09:13:41;;;;;;;21.08;6.20;;;5.00;97.80;;;;;;5022051;28;20029;-70
2023/01/10 09:16:06;;;;;;;19.30;6.35;;;5.10;97.90;;;;;;5026004;28;20056;-71
2023/01/10 09:18:32;;;;;;;18.13;6.32;;;5.10;97.90;;;;;;5031056;28;20057;-70
2023/01/10 09:20:58;;;;;;;26.20;7.25;;;5.20;97.90;;;;;;5030506;28;20059;-70
2023/01/10 09:23:24;;;;;;;20.73;6.53;;;5.20;97.70;;;;;;5024351;28;20037;-70
2023/01/10 09:25:52;;;;;;;15.70;6.72;;;5.30;97.70;;;;;;5028843;28;20057;-70
2023/01/10 09:28:18;;;;;;;19.05;7.00;;;5.30;97.60;;;;;;5024592;28;20041;-70
2023/01/10 09:30:44;;;;;;;29.63;7.05;;;5.30;97.50;;;;;;5031159;28;20037;-70
2023/01/10 09:33:10;;;;;;;22.45;7.03;;;5.40;97.50;;;;;;5031547;28;20489;-70
2023/01/10 09:35:37;;;;;;;22.13;6.68;;;5.40;97.40;;;;;;5030960;28;20032;-70
2023/01/10 09:38:05;;;;;;;24.20;6.82;;;5.40;97.30;;;;;;5028714;28;20078;-70
2023/01/10 09:40:55;;;;;;;19.58;6.95;;;5.40;97.30;;;;;;5030407;28;20049;-70
2023/01/10 09:43:49;;;;;;;22.65;5.75;;;5.40;97.20;;;;;;5031159;28;20033;-70
2023/01/10 09:46:30;;;;;;;17.17;5.95;;;5.40;97.40;;;;;;5028592;28;20037;-70
2023/01/10 09:49:17;;;;;;;20.30;6.20;;;5.50;97.40;;;;;;5030220;28;20032;-70
2023/01/10 09:51:47;;;;;;;16.75;6.28;;;5.60;97.40;;;;;;5021760;28;20025;-70
2023/01/10 09:54:29;;;;;;;13.68;5.97;;;5.60;97.30;;;;;;5031125;28;20033;-70
2023/01/10 09:56:57;;;;;;;22.13;6.15;;;5.60;97.10;;;;;;5031141;28;20040;-70
2023/01/10 09:59:25;;;;;;;28.50;6.22;;;5.60;97.10;;;;;;5027250;28;20407;-70
2023/01/10 10:02:03;;;;;;;24.65;6.18;;;5.60;96.90;;;;;;5031805;28;20034;-72
2023/01/10 10:04:37;;;;;;;13.45;5.95;;;5.70;97.00;;;;;;5029572;28;20120;-70
2023/01/10 10:07:11;;;;;;;19.02;6.00;;;5.70;97.00;;;;;;5025763;28;20029;-70
2023/01/10 10:09:36;;;;;;;23.42;6.00;;;5.60;96.90;;;;;;5030706;28;20041;-70
2023/01/10 10:12:24;;;;;;;13.23;5.55;;;5.60;96.90;;;;;;5029279;28;20043;-70
2023/01/10 10:15:02;;;;;;;17.48;6.03;;;5.60;97.00;;;;;;5030226;28;20056;-70
2023/01/10 10:17:49;;;;;;;18.23;6.10;;;5.60;97.00;;;;;;5031317;28;20029;-70
2023/01/10 10:20:26;;;;;;;19.98;6.05;;;5.60;97.00;;;;;;5023043;28;20049;-70
2023/01/10 10:23:26;;;;;;;18.15;5.75;;;5.60;97.10;;;;;;5019298;28;20504;-70
2023/01/10 10:26:20;;;;;;;21.75;5.95;;;5.60;97.00;;;;;;5008677;28;20037;-70
2023/01/10 10:29:05;;;;;;;24.13;6.35;;;5.60;96.90;;;;;;5017734;28;20462;-70
2023/01/10 10:31:42;;;;;;;13.95;6.75;;;5.70;96.90;;;;;;5026552;28;20037;-70
2023/01/10 10:34:35;;;;;;;17.15;5.90;;;5.70;96.90;;;;;;5029211;28;20504;-70
2023/01/10 10:37:22;;;;;;;19.02;5.82;;;5.70;97.00;;;;;;5043465;28;20119;-70
2023/01/10 10:39:56;;;;;;;21.30;6.38;;;5.70;96.90;;;;;;5027687;28;20347;-70
2023/01/10 10:42:26;;;;;;;22.17;6.18;;;5.80;96.90;;;;;;5031662;28;20385;-70
2023/01/10 10:44:58;;;;;;;15.68;5.68;;;5.80;96.70;;;;;;5029281;28;20248;-70
2023/01/10 10:47:31;;;;;;;16.95;5.50;;;5.80;96.50;;;;;;5030773;28;20036;-70
2023/01/10 10:50:38;;;;;;;16.55;5.93;;;5.90;96.60;;;;;;5023706;28;20029;-70
2023/01/10 10:53:04;;;;;;;16.77;5.45;;;5.90;96.50;;;;;;4987957;28;20034;-70
2023/01/10 10:55:35;;;;;;;19.75;5.93;;;5.90;96.50;;;;;;5021360;28;20543;-70
2023/01/10 10:58:01;;;;;;;;;;;6.00;96.50;;;;;;5030253;28;20037;-70
2023/01/10 11:00:28;;;;;;;22.23;5.00;;;6.00;96.30;;;;;;5028943;28;19917;-70
2023/01/10 11:03:04;;;;;;;15.27;5.22;;;6.00;96.30;;;;;;5029000;28;20033;-70
2023/01/10 11:05:41;;;;;;;13.82;5.28;;;6.00;96.30;;;;;;5026264;28;20069;-69
2023/01/10 11:08:14;;;;;;;16.63;5.75;;;6.00;96.10;;;;;;5027422;28;20036;-70
2023/01/10 11:10:45;;;;;;;13.80;5.93;;;6.00;96.20;;;;;;5033463;28;20029;-69
2023/01/10 11:13:26;;;;;;;18.00;5.90;;;6.10;96.00;;;;;;5027606;28;20267;-70
2023/01/10 11:15:52;;;;;;;19.75;6.00;;;6.10;96.20;;;;;;5030118;28;20091;-70
2023/01/10 11:18:20;;;;;;;19.17;6.18;;;6.20;96.50;;;;;;5026855;28;20033;-70
2023/01/10 11:20:47;;;;;;;19.35;5.65;;;6.10;96.50;;;;;;5020752;28;20037;-70
2023/01/10 11:23:26;;;;;;;19.38;6.55;;;6.10;96.50;;;;;;5031192;28;20442;-70
2023/01/10 11:25:52;;;;;;;19.45;6.43;;;6.10;96.60;;;;;;5035436;28;20369;-70
2023/01/10 11:28:22;;;;;;;15.73;6.47;;;6.10;96.50;;;;;;5033110;28;20037;-70
2023/01/10 11:30:49;;;;;;;16.02;6.75;;;6.10;96.70;;;;;;5034081;28;20021;-70
2023/01/10 11:33:24;;;;;;;20.80;6.88;;;6.10;96.60;;;;;;5028517;28;20068;-70
2023/01/10 11:36:06;;;;;;;16.00;6.80;;;6.20;96.70;;;;;;5026904;28;20122;-70
2023/01/10 11:38:33;;;;;;;17.27;7.05;;;6.20;96.60;;;;;;5028668;28;20021;-70
2023/01/10 11:41:24;;;;;;;21.30;7.28;;;6.30;96.50;;;;;;5030474;28;20037;-70
2023/01/10 11:43:49;;;;;;;14.82;7.75;;;6.40;96.40;;;;;;5023803;28;20064;-70
2023/01/10 11:46:24;;;;;;;22.20;7.70;;;6.40;96.20;;;;;;5028930;28;20474;-70
2023/01/10 11:49:05;;;;;;;18.40;7.40;;;6.50;96.10;;;;;;5027248;28;20120;-70
2023/01/10 11:51:35;;;;;;;19.88;7.15;;;6.50;95.90;;;;;;5025604;28;20421;-70
2023/01/10 11:54:22;;;;;;;21.23;7.32;;;6.40;95.40;;;;;;5032981;28;20033;-70
2023/01/10 11:56:58;;;;;;;23.90;7.75;;;6.40;95.80;;;;;;5025016;28;20054;-70
2023/01/10 11:59:24;;;;;;;23.77;7.75;;;6.40;95.80;;;;;;5031500;28;20108;-70
2023/01/10 12:02:13;;;;;;;25.90;8.30;;;6.40;95.90;;;;;;5033375;28;20030;-70
2023/01/10 12:04:43;;;;;;;20.13;8.50;;;6.40;95.90;;;;;;5023603;28;20454;-70
2023/01/10 12:07:11;;;;;;;23.27;7.20;;;6.40;95.90;;;;;;5027934;28;20033;-70
2023/01/10 12:09:53;;;;;;;13.88;6.93;;;6.40;95.80;;;;;;5038029;28;20474;-70
2023/01/10 12:12:24;;;;;;;20.00;7.00;;;6.40;95.70;;;;;;5034897;28;20041;-70
2023/01/10 12:14:51;;;;;;;17.17;7.22;;;6.40;95.70;;;;;;5023445;28;20030;-70
2023/01/10 12:17:33;;;;;;;19.17;7.55;;;6.40;95.50;;;;;;5033614;28;20037;-70
2023/01/10 12:20:02;;;;;;;19.15;8.07;;;6.40;95.50;;;;;;5028914;28;20061;-70
2023/01/10 12:22:41;;;;;;;18.35;7.18;;;6.40;95.40;;;;;;5031563;28;20065;-70
2023/01/10 12:25:41;;;;;;;20.98;8.00;;;6.40;95.30;;;;;;5031171;28;20037;-70
2023/01/10 12:28:19;;;;;;;19.58;7.57;;;6.40;95.40;;;;;;5032522;28;20029;-71
2023/01/10 12:30:51;;;;;;;19.30;8.20;;;6.50;95.70;;;;;;5033389;28;20033;-70
2023/01/10 12:33:40;;;;;;;22.05;8.35;;;6.50;95.60;;;;;;5029666;28;20289;-70
2023/01/10 12:36:30;;;;;;;18.65;8.15;;;6.50;95.20;;;;;;5020460;28;20100;-70
2023/01/10 12:39:22;;;;;;;23.33;7.47;;;6.50;95.10;;;;;;5029850;28;20112;-70
2023/01/10 12:45:08;;;;;;;25.63;7.97;;;6.60;95.00;;;;;;5029641;28;20024;-70
2023/01/10 12:47:41;;;;;;;19.98;7.35;;;6.60;94.30;;;;;;5029196;28;20041;-70
2023/01/10 12:50:21;;;;;;;13.70;7.15;;;6.70;94.20;;;;;;5029678;28;20025;-70
2023/01/10 12:53:08;;;;;;;23.13;7.78;;;6.70;94.00;;;;;;5026131;28;20076;-70
2023/01/10 12:55:40;;;;;;;18.83;6.95;;;6.70;94.00;;;;;;5026995;28;20037;-70
2023/01/10 12:58:10;;;;;;;20.30;6.70;;;6.80;93.90;;;;;;5028687;28;20040;-70
2023/01/10 13:00:41;;;;;;;22.92;7.78;;;6.80;93.90;;;;;;5030734;28;20061;-70
2023/01/10 13:03:13;;;;;;;23.58;7.18;;;7.00;93.80;;;;;;5023379;28;20441;-70
2023/01/10 13:05:39;;;;;;;23.30;6.55;;;7.10;93.40;;;;;;5023498;28;20501;-70
2023/01/10 13:08:11;;;;;;;16.92;6.15;;;7.10;93.00;;;;;;5020640;28;20037;-70
2023/01/10 13:10:44;;;;;;;26.00;6.38;;;7.20;93.00;;;;;;5025166;28;20025;-70
2023/01/10 13:13:30;;;;;;;22.35;5.55;;;7.30;93.00;;;;;;5023541;28;20375;-70